Time;durP1;ratioP1;P1;durP2;ratioP2;P2;SDS_P1;SDS_P2;PMS_P1;PMS_P2;Temp;Humidity;BMP_temperature;BMP_pressure;BME280_temperature;BME280_humidity;BME280_pressure;Samples;Min_cycle;Max_cycle;Signal;HPM_P1;HPM_P2
2023/07/07 00:00:05;;;;;;;2.17;1.50;;;;;;;;;;2097736;28;20400;-67
2023/07/07 00:01:24;;;;;;;1.92;1.65;;;;;;;;;;2095731;28;20480;-66
2023/07/07 00:02:43;;;;;;;4.30;1.65;;;;;;;;;;2097521;28;20028;-66
2023/07/07 00:04:02;;;;;;;1.83;1.30;;;;;;;;;;2099431;28;20025;-66
2023/07/07 00:05:21;;;;;;;4.32;1.65;;;;;;;;;;2096875;28;20020;-66
2023/07/07 00:06:40;;;;;;;4.03;1.58;;;;;;;;;;2089624;28;20025;-66
2023/07/07 00:07:58;;;;;;;4.40;1.67;;;;;;;;;;2096029;28;20481;-67
2023/07/07 00:09:17;;;;;;;2.20;1.52;;;;;;;;;;2096751;28;20024;-68
2023/07/07 00:10:42;;;;;;;9.40;1.88;;;;;;;;;;2099056;28;20021;-67
2023/07/07 00:12:01;;;;;;;3.83;1.73;;;;;;;;;;2100395;28;20032;-66
2023/07/07 00:13:20;;;;;;;2.25;1.40;;;;;;;;;;2096040;28;20103;-66
2023/07/07 00:14:39;;;;;;;3.83;1.60;;;;;;;;;;2095617;28;20036;-67
2023/07/07 00:16:02;;;;;;;2.63;1.55;;;;;;;;;;2096418;28;20036;-67
2023/07/07 00:17:20;;;;;;;4.18;1.80;;;;;;;;;;2097632;28;20028;-68
2023/07/07 00:18:39;;;;;;;5.15;1.70;;;;;;;;;;2096292;28;20650;-67
2023/07/07 00:20:03;;;;;;;2.95;1.77;;;;;;;;;;2088820;28;20032;-67
2023/07/07 00:21:24;;;;;;;2.85;1.30;;;;;;;;;;2094868;28;20575;-67
2023/07/07 00:22:44;;;;;;;2.30;1.67;;;;;;;;;;2098360;28;20045;-67
2023/07/07 00:24:04;;;;;;;3.33;1.38;;;;;;;;;;2098661;28;20111;-67
2023/07/07 00:25:23;;;;;;;3.60;1.70;;;;;;;;;;2098808;28;20032;-67
2023/07/07 00:26:42;;;;;;;4.05;1.75;;;;;;;;;;2099479;28;20055;-68
2023/07/07 00:28:01;;;;;;;2.38;1.80;;;;;;;;;;2099544;28;20017;-66
2023/07/07 00:29:20;;;;;;;6.75;1.67;;;;;;;;;;2095039;28;20420;-66
2023/07/07 00:30:39;;;;;;;3.85;1.50;;;;;;;;;;2095577;28;20016;-66
2023/07/07 00:31:58;;;;;;;3.95;1.65;;;;;;;;;;2099409;28;20021;-66
2023/07/07 00:33:17;;;;;;;5.22;1.80;;;;;;;;;;2095330;28;20032;-67
2023/07/07 00:34:36;;;;;;;3.85;1.92;;;;;;;;;;2098838;28;20032;-67
2023/07/07 00:35:55;;;;;;;6.32;1.33;;;;;;;;;;2096095;28;20032;-65
2023/07/07 00:37:14;;;;;;;4.95;1.60;;;;;;;;;;2098859;28;20032;-69
2023/07/07 00:38:33;;;;;;;5.35;2.08;;;;;;;;;;2097328;28;20032;-67
2023/07/07 00:39:52;;;;;;;4.55;1.90;;;;;;;;;;2093076;28;20028;-67
2023/07/07 00:41:11;;;;;;;2.90;1.80;;;;;;;;;;2098383;28;20064;-66
2023/07/07 00:42:30;;;;;;;3.80;1.90;;;;;;;;;;2095754;28;20182;-66
2023/07/07 00:43:59;;;;;;;3.75;1.73;;;;;;;;;;2093737;28;20025;-66
2023/07/07 00:45:19;;;;;;;2.50;1.50;;;;;;;;;;2098351;28;20024;-67
2023/07/07 00:46:38;;;;;;;2.75;1.90;;;;;;;;;;2095860;28;20100;-67
2023/07/07 00:47:59;;;;;;;4.47;1.70;;;;;;;;;;2098420;28;20028;-66
2023/07/07 00:49:20;;;;;;;5.45;1.60;;;;;;;;;;2097368;28;20162;-67
2023/07/07 00:50:45;;;;;;;3.25;1.50;;;;;;;;;;2101257;28;20016;-67
2023/07/07 00:52:04;;;;;;;5.68;2.20;;;;;;;;;;2101117;28;20024;-66
2023/07/07 00:53:23;;;;;;;2.47;1.63;;;;;;;;;;2099425;28;20033;-67
2023/07/07 00:54:42;;;;;;;3.78;1.90;;;;;;;;;;2099086;28;20040;-66
2023/07/07 00:56:06;;;;;;;6.45;1.70;;;;;;;;;;2100530;28;20060;-66
2023/07/07 00:57:25;;;;;;;2.47;1.83;;;;;;;;;;2101462;28;20067;-67
2023/07/07 00:58:44;;;;;;;2.65;1.60;;;;;;;;;;2095351;28;20060;-66
2023/07/07 01:00:03;;;;;;;5.97;2.28;;;;;;;;;;2095094;28;20040;-66
2023/07/07 01:01:22;;;;;;;3.60;1.90;;;;;;;;;;2092251;28;20438;-66
2023/07/07 01:02:47;;;;;;;5.68;1.58;;;;;;;;;;2089822;28;20045;-66
2023/07/07 01:04:08;;;;;;;3.67;1.63;;;;;;;;;;2089500;28;20041;-66
2023/07/07 01:05:29;;;;;;;4.22;1.50;;;;;;;;;;2091205;28;20024;-67
2023/07/07 01:06:50;;;;;;;6.45;1.70;;;;;;;;;;2084997;28;20100;-66
2023/07/07 01:08:09;;;;;;;2.00;1.80;;;;;;;;;;2087670;28;20029;-66
2023/07/07 01:09:28;;;;;;;4.35;1.65;;;;;;;;;;2091804;28;20028;-66
2023/07/07 01:10:47;;;;;;;4.95;1.95;;;;;;;;;;2092614;28;20021;-67
2023/07/07 01:12:13;;;;;;;3.63;1.45;;;;;;;;;;2093875;28;20021;-67
2023/07/07 01:13:32;;;;;;;2.75;1.77;;;;;;;;;;2091255;28;20036;-66
2023/07/07 01:14:51;;;;;;;3.13;1.60;;;;;;;;;;2088844;28;20494;-66
2023/07/07 01:16:10;;;;;;;4.93;2.03;;;;;;;;;;2091714;28;20049;-66
2023/07/07 01:17:32;;;;;;;3.35;1.65;;;;;;;;;;2081781;28;20446;-68
2023/07/07 01:19:26;;;;;;;3.72;1.88;;;;;;;;;;2088567;28;20048;-67
2023/07/07 01:21:03;;;;;;;2.38;1.42;;;;;;;;;;2059741;28;20052;-67
2023/07/07 01:22:41;;;;;;;6.07;1.80;;;;;;;;;;2055422;28;20455;-65
2023/07/07 01:24:09;;;;;;;4.70;1.70;;;;;;;;;;2092753;28;20489;-65
2023/07/07 01:25:28;;;;;;;5.13;1.83;;;;;;;;;;2090648;28;20037;-66
2023/07/07 01:27:06;;;;;;;4.18;1.50;;;;;;;;;;2092223;28;20381;-66
2023/07/07 01:28:43;;;;;;;2.45;1.52;;;;;;;;;;2092235;28;20033;-66
2023/07/07 01:30:15;;;;;;;4.03;1.73;;;;;;;;;;2091779;28;20021;-66
2023/07/07 01:31:40;;;;;;;2.97;1.92;;;;;;;;;;2092095;28;20057;-67
2023/07/07 01:33:03;;;;;;;3.40;1.48;;;;;;;;;;2094557;28;20025;-66
2023/07/07 01:34:22;;;;;;;3.45;1.70;;;;;;;;;;2093914;28;20485;-66
2023/07/07 01:35:42;;;;;;;3.92;1.55;;;;;;;;;;2088249;28;20474;-66
2023/07/07 01:37:01;;;;;;;4.72;1.75;;;;;;;;;;2091024;28;20500;-66
2023/07/07 01:38:34;;;;;;;8.38;2.13;;;;;;;;;;2094715;28;20029;-66
2023/07/07 01:39:53;;;;;;;5.10;2.20;;;;;;;;;;2094527;28;20033;-65
2023/07/07 01:41:27;;;;;;;5.90;1.67;;;;;;;;;;2092367;28;20155;-65
2023/07/07 01:42:46;;;;;;;;;;;;;;;;;;2095126;28;20020;-66
2023/07/07 01:44:18;;;;;;;3.42;1.60;;;;;;;;;;2088938;28;19909;-66
2023/07/07 01:45:41;;;;;;;3.10;1.83;;;;;;;;;;2093910;28;20032;-67
2023/07/07 01:47:01;;;;;;;3.00;1.75;;;;;;;;;;2092507;28;20032;-66
2023/07/07 01:48:38;;;;;;;5.18;2.03;;;;;;;;;;2092008;28;20499;-66
2023/07/07 01:50:01;;;;;;;6.20;1.83;;;;;;;;;;2088901;28;20033;-67
2023/07/07 01:51:22;;;;;;;4.65;1.73;;;;;;;;;;2082219;28;20077;-67
2023/07/07 01:52:44;;;;;;;3.72;1.65;;;;;;;;;;2086987;28;20489;-66
2023/07/07 01:54:05;;;;;;;5.15;1.95;;;;;;;;;;2084717;28;20439;-67
2023/07/07 01:55:35;;;;;;;4.72;1.70;;;;;;;;;;2088707;28;20032;-66
2023/07/07 01:56:55;;;;;;;5.35;1.67;;;;;;;;;;2090412;28;20431;-66
2023/07/07 01:58:17;;;;;;;3.58;1.80;;;;;;;;;;2091613;28;20048;-66
2023/07/07 01:59:36;;;;;;;4.22;1.75;;;;;;;;;;2091906;28;20021;-66
2023/07/07 02:00:56;;;;;;;6.20;2.22;;;;;;;;;;2089028;28;20482;-66
2023/07/07 02:02:15;;;;;;;5.03;2.05;;;;;;;;;;2091743;28;20067;-66
2023/07/07 02:03:34;;;;;;;3.67;2.17;;;;;;;;;;2093649;28;20028;-66
2023/07/07 02:04:53;;;;;;;6.32;2.00;;;;;;;;;;2086338;28;20331;-66
2023/07/07 02:06:12;;;;;;;3.28;1.70;;;;;;;;;;2091852;28;20123;-66
2023/07/07 02:07:31;;;;;;;5.30;1.95;;;;;;;;;;2093230;28;20377;-66
2023/07/07 02:08:50;;;;;;;5.63;1.80;;;;;;;;;;2090237;28;20440;-67
2023/07/07 02:10:09;;;;;;;3.53;1.70;;;;;;;;;;2081798;28;20052;-66
2023/07/07 02:11:28;;;;;;;3.47;1.90;;;;;;;;;;2088909;28;20029;-66
2023/07/07 02:12:48;;;;;;;7.72;1.85;;;;;;;;;;2092663;28;20823;-66
2023/07/07 02:14:07;;;;;;;2.50;1.58;;;;;;;;;;2082778;28;20382;-66
2023/07/07 02:15:25;;;;;;;6.60;2.05;;;;;;;;;;2089450;28;20041;-66
2023/07/07 02:16:44;;;;;;;6.15;1.80;;;;;;;;;;2082265;28;20030;-66
2023/07/07 02:18:03;;;;;;;2.53;1.52;;;;;;;;;;2089682;28;20045;-66
2023/07/07 02:19:22;;;;;;;3.95;2.17;;;;;;;;;;2091709;28;20065;-66
2023/07/07 02:20:41;;;;;;;4.25;1.55;;;;;;;;;;2091100;28;20040;-66
2023/07/07 02:22:00;;;;;;;4.28;1.92;;;;;;;;;;2093046;28;20032;-66
2023/07/07 02:23:19;;;;;;;2.63;1.90;;;;;;;;;;2087747;28;20036;-65
2023/07/07 02:24:38;;;;;;;5.30;1.60;;;;;;;;;;2090303;28;20033;-65
2023/07/07 02:25:57;;;;;;;2.92;1.60;;;;;;;;;;2092125;28;20032;-66
2023/07/07 02:27:16;;;;;;;5.35;1.85;;;;;;;;;;2090054;28;20032;-66
2023/07/07 02:28:35;;;;;;;3.90;1.70;;;;;;;;;;2088728;28;20036;-65
2023/07/07 02:29:54;;;;;;;3.88;1.60;;;;;;;;;;2092950;28;20393;-66
2023/07/07 02:31:13;;;;;;;3.88;1.63;;;;;;;;;;2092688;28;20659;-66
2023/07/07 02:32:32;;;;;;;4.18;1.60;;;;;;;;;;2082072;28;20952;-66
2023/07/07 02:33:52;;;;;;;3.25;1.70;;;;;;;;;;2089686;28;20032;-66
2023/07/07 02:35:12;;;;;;;3.30;1.40;;;;;;;;;;2092831;28;20085;-66
2023/07/07 02:36:31;;;;;;;5.57;1.63;;;;;;;;;;2090864;28;20037;-65
2023/07/07 02:37:50;;;;;;;5.78;1.92;;;;;;;;;;2083389;28;20033;-66
2023/07/07 02:39:09;;;;;;;3.42;1.75;;;;;;;;;;2086011;28;21076;-66
2023/07/07 02:40:29;;;;;;;5.22;1.60;;;;;;;;;;2093051;28;20040;-67
2023/07/07 02:41:48;;;;;;;7.65;1.90;;;;;;;;;;2089463;28;20036;-66
2023/07/07 02:43:07;;;;;;;4.10;1.60;;;;;;;;;;2081257;28;20116;-67
2023/07/07 02:44:26;;;;;;;5.20;1.63;;;;;;;;;;2087508;28;20120;-66
2023/07/07 02:45:45;;;;;;;3.00;1.58;;;;;;;;;;2093871;28;20033;-66
2023/07/07 02:47:04;;;;;;;4.65;1.55;;;;;;;;;;2091721;28;20028;-66
2023/07/07 02:48:23;;;;;;;4.72;1.40;;;;;;;;;;2089931;28;20497;-66
2023/07/07 02:49:42;;;;;;;5.57;1.50;;;;;;;;;;2092949;28;20036;-66
2023/07/07 02:51:01;;;;;;;3.10;1.50;;;;;;;;;;2092315;28;20029;-66
2023/07/07 02:52:20;;;;;;;6.93;1.67;;;;;;;;;;2093131;28;20044;-66
2023/07/07 02:53:39;;;;;;;3.28;1.63;;;;;;;;;;2093511;28;20273;-66
2023/07/07 02:54:59;;;;;;;2.88;1.38;;;;;;;;;;2091416;28;20029;-67
2023/07/07 02:56:18;;;;;;;3.63;1.50;;;;;;;;;;2090581;28;20033;-66
2023/07/07 02:57:37;;;;;;;2.53;1.40;;;;;;;;;;2093466;28;20036;-66
2023/07/07 02:58:56;;;;;;;2.47;1.50;;;;;;;;;;2087917;28;20029;-67
2023/07/07 03:00:15;;;;;;;5.72;1.80;;;;;;;;;;2078066;28;20533;-67
2023/07/07 03:01:34;;;;;;;4.60;1.75;;;;;;;;;;2083834;28;20032;-67
2023/07/07 03:02:53;;;;;;;1.98;1.60;;;;;;;;;;2087770;28;20041;-66
2023/07/07 03:04:12;;;;;;;2.13;1.55;;;;;;;;;;2088481;28;20489;-66
2023/07/07 03:05:32;;;;;;;4.35;1.42;;;;;;;;;;2087862;28;20405;-66
2023/07/07 03:06:51;;;;;;;3.00;1.52;;;;;;;;;;2087622;28;20021;-67
2023/07/07 03:08:09;;;;;;;3.22;1.83;;;;;;;;;;2088378;28;20033;-67
2023/07/07 03:09:28;;;;;;;3.55;1.58;;;;;;;;;;2087812;28;20144;-66
2023/07/07 03:10:47;;;;;;;3.92;1.70;;;;;;;;;;2087618;28;20028;-66
2023/07/07 03:12:06;;;;;;;7.03;1.77;;;;;;;;;;2087853;28;20029;-66
2023/07/07 03:13:25;;;;;;;4.45;1.48;;;;;;;;;;2080699;28;20038;-66
2023/07/07 03:14:44;;;;;;;3.22;1.30;;;;;;;;;;2082269;28;20056;-66
2023/07/07 03:16:09;;;;;;;5.80;1.60;;;;;;;;;;2078257;28;20257;-66
2023/07/07 03:17:31;;;;;;;5.82;1.70;;;;;;;;;;2074216;28;20438;-66
2023/07/07 03:18:54;;;;;;;6.05;1.65;;;;;;;;;;2082687;28;20036;-67
2023/07/07 03:20:13;;;;;;;2.92;1.30;;;;;;;;;;2085882;28;20041;-66
2023/07/07 03:21:33;;;;;;;6.03;2.03;;;;;;;;;;2089163;28;20044;-66
2023/07/07 03:22:52;;;;;;;3.60;1.63;;;;;;;;;;2086687;28;20041;-66
2023/07/07 03:24:10;;;;;;;4.60;1.45;;;;;;;;;;2088006;28;20501;-66
2023/07/07 03:25:30;;;;;;;4.13;2.00;;;;;;;;;;2077968;28;20124;-67
2023/07/07 03:26:49;;;;;;;5.13;1.45;;;;;;;;;;2075595;28;20026;-67
2023/07/07 03:28:08;;;;;;;3.42;1.80;;;;;;;;;;2083367;28;20037;-66
2023/07/07 03:29:27;;;;;;;5.47;1.35;;;;;;;;;;2078856;28;20136;-66
2023/07/07 03:30:48;;;;;;;2.72;1.42;;;;;;;;;;2082806;28;20502;-66
2023/07/07 03:32:07;;;;;;;3.40;1.63;;;;;;;;;;2086665;28;20016;-68
2023/07/07 03:33:26;;;;;;;4.80;1.55;;;;;;;;;;2087930;28;20053;-66
2023/07/07 03:34:49;;;;;;;3.35;1.80;;;;;;;;;;2088846;28;20033;-66
2023/07/07 03:36:10;;;;;;;5.85;1.80;;;;;;;;;;2078467;28;20041;-66
2023/07/07 03:37:29;;;;;;;4.15;1.42;;;;;;;;;;2082771;28;20481;-65
2023/07/07 03:38:48;;;;;;;5.32;1.50;;;;;;;;;;2086243;28;20044;-66
2023/07/07 03:40:09;;;;;;;2.60;1.63;;;;;;;;;;2087649;28;20037;-66
2023/07/07 03:41:28;;;;;;;7.60;1.38;;;;;;;;;;2088815;28;20674;-66
2023/07/07 03:42:47;;;;;;;2.75;1.58;;;;;;;;;;2085099;28;20040;-67
2023/07/07 03:44:06;;;;;;;3.58;1.30;;;;;;;;;;2084670;28;20552;-66
2023/07/07 03:45:25;;;;;;;5.57;2.15;;;;;;;;;;2087710;28;20427;-66
2023/07/07 03:46:44;;;;;;;4.20;1.58;;;;;;;;;;2088198;28;20052;-66
2023/07/07 03:48:03;;;;;;;3.75;1.58;;;;;;;;;;2088597;28;20048;-67
2023/07/07 03:49:22;;;;;;;3.55;1.83;;;;;;;;;;2084540;28;20021;-67
2023/07/07 03:50:41;;;;;;;4.75;1.65;;;;;;;;;;2086204;28;20029;-67
2023/07/07 03:52:00;;;;;;;2.40;1.30;;;;;;;;;;2088641;28;20107;-66
2023/07/07 03:53:19;;;;;;;3.47;1.80;;;;;;;;;;2085716;28;20545;-67
2023/07/07 03:54:40;;;;;;;3.58;1.95;;;;;;;;;;2079276;28;20037;-66
2023/07/07 03:55:59;;;;;;;9.88;1.88;;;;;;;;;;2083950;28;20389;-67
2023/07/07 03:57:18;;;;;;;3.80;1.60;;;;;;;;;;2075511;28;20038;-66
2023/07/07 03:58:37;;;;;;;3.53;1.50;;;;;;;;;;2076055;28;20041;-67
2023/07/07 03:59:55;;;;;;;3.20;1.63;;;;;;;;;;2082771;28;20103;-66
2023/07/07 04:01:15;;;;;;;5.18;1.48;;;;;;;;;;2083897;28;20107;-67
2023/07/07 04:02:35;;;;;;;2.08;1.58;;;;;;;;;;2091397;28;20397;-66
2023/07/07 04:03:55;;;;;;;2.60;1.50;;;;;;;;;;2097186;28;20044;-66
2023/07/07 04:05:14;;;;;;;3.90;1.35;;;;;;;;;;2096103;28;20028;-66
2023/07/07 04:06:35;;;;;;;3.75;1.60;;;;;;;;;;2095403;28;20457;-68
2023/07/07 04:07:53;;;;;;;5.05;1.52;;;;;;;;;;2095191;28;20033;-67
2023/07/07 04:09:12;;;;;;;3.47;1.48;;;;;;;;;;2095746;28;20035;-66
2023/07/07 04:10:32;;;;;;;3.28;1.58;;;;;;;;;;2096497;28;20036;-66
2023/07/07 04:11:51;;;;;;;7.22;1.73;;;;;;;;;;2088207;28;20112;-67
2023/07/07 04:13:09;;;;;;;4.38;1.50;;;;;;;;;;2089503;28;20029;-66
2023/07/07 04:14:28;;;;;;;7.30;1.92;;;;;;;;;;2096234;28;20032;-66
2023/07/07 04:15:56;;;;;;;4.85;1.73;;;;;;;;;;2092459;28;20040;-66
2023/07/07 04:17:15;;;;;;;4.63;1.60;;;;;;;;;;2095176;28;20032;-66
2023/07/07 04:18:34;;;;;;;1.48;1.17;;;;;;;;;;2092477;28;20032;-66
2023/07/07 04:19:53;;;;;;;5.70;1.77;;;;;;;;;;2095677;28;20028;-66
2023/07/07 04:21:14;;;;;;;2.10;1.35;;;;;;;;;;2092210;28;20033;-66
2023/07/07 04:22:33;;;;;;;6.10;1.60;;;;;;;;;;2095130;28;20032;-66
2023/07/07 04:23:54;;;;;;;3.22;1.40;;;;;;;;;;2094667;28;20437;-66
2023/07/07 04:25:14;;;;;;;2.60;1.42;;;;;;;;;;2091445;28;20553;-66
2023/07/07 04:26:33;;;;;;;2.83;1.67;;;;;;;;;;2090777;28;20025;-66
2023/07/07 04:27:52;;;;;;;4.68;2.10;;;;;;;;;;2091934;28;20017;-67
2023/07/07 04:29:11;;;;;;;4.60;1.60;;;;;;;;;;2094002;28;20119;-66
2023/07/07 04:30:30;;;;;;;8.32;1.75;;;;;;;;;;2081149;28;20564;-66
2023/07/07 04:31:49;;;;;;;4.35;2.00;;;;;;;;;;2077281;28;20025;-66
2023/07/07 04:33:08;;;;;;;3.05;1.35;;;;;;;;;;2090033;28;20032;-66
2023/07/07 04:34:27;;;;;;;1.73;1.38;;;;;;;;;;2094723;28;20497;-66
2023/07/07 04:35:50;;;;;;;2.85;1.88;;;;;;;;;;2095794;28;20489;-66
2023/07/07 04:37:09;;;;;;;;;;;;;;;;;;2093007;28;20028;-66
2023/07/07 04:38:32;;;;;;;2.90;1.52;;;;;;;;;;2095049;28;19912;-66
2023/07/07 04:39:51;;;;;;;3.25;1.75;;;;;;;;;;2096467;28;20056;-66
2023/07/07 04:41:12;;;;;;;2.97;1.33;;;;;;;;;;2097441;28;20033;-66
2023/07/07 04:42:31;;;;;;;3.65;1.70;;;;;;;;;;2094176;28;20021;-66
2023/07/07 04:43:51;;;;;;;4.53;2.08;;;;;;;;;;2095986;28;20028;-67
2023/07/07 04:45:10;;;;;;;3.15;1.50;;;;;;;;;;2093506;28;20407;-66
2023/07/07 04:46:31;;;;;;;5.57;1.58;;;;;;;;;;2094563;28;20025;-66
2023/07/07 04:47:50;;;;;;;4.53;1.98;;;;;;;;;;2095094;28;20052;-66
2023/07/07 04:49:11;;;;;;;3.30;1.40;;;;;;;;;;2089199;28;20025;-66
2023/07/07 04:50:32;;;;;;;3.35;1.98;;;;;;;;;;2092581;28;20029;-66
2023/07/07 04:51:51;;;;;;;4.13;1.50;;;;;;;;;;2091048;28;20507;-66
2023/07/07 04:53:10;;;;;;;2.47;1.20;;;;;;;;;;2091939;28;20021;-68
2023/07/07 04:54:29;;;;;;;6.05;1.90;;;;;;;;;;2093156;28;20020;-66
2023/07/07 04:55:48;;;;;;;6.22;2.10;;;;;;;;;;2095424;28;20129;-66
2023/07/07 04:57:07;;;;;;;2.50;1.58;;;;;;;;;;2093529;28;20025;-67
2023/07/07 04:58:26;;;;;;;4.07;1.67;;;;;;;;;;2095110;28;20040;-66
2023/07/07 04:59:46;;;;;;;4.53;1.67;;;;;;;;;;2092619;28;20036;-67
2023/07/07 05:01:06;;;;;;;5.28;1.75;;;;;;;;;;2092580;28;20130;-66
2023/07/07 05:02:26;;;;;;;2.13;1.30;;;;;;;;;;2092869;28;20029;-67
2023/07/07 05:03:45;;;;;;;2.50;1.58;;;;;;;;;;2091055;28;20032;-66
2023/07/07 05:05:04;;;;;;;3.10;1.50;;;;;;;;;;2092450;28;20033;-66
2023/07/07 05:06:24;;;;;;;3.30;1.50;;;;;;;;;;2092939;28;20021;-66
2023/07/07 05:07:43;;;;;;;4.18;1.73;;;;;;;;;;2094606;28;20033;-66
2023/07/07 05:09:03;;;;;;;3.17;1.58;;;;;;;;;;2092329;28;20453;-66
2023/07/07 05:10:22;;;;;;;4.05;1.45;;;;;;;;;;2086548;28;20032;-66
2023/07/07 05:11:41;;;;;;;4.60;2.03;;;;;;;;;;2091369;28;20036;-67
2023/07/07 05:13:01;;;;;;;5.85;1.70;;;;;;;;;;2092095;28;20040;-66
2023/07/07 05:14:19;;;;;;;6.15;1.85;;;;;;;;;;2093095;28;20063;-66
2023/07/07 05:15:39;;;;;;;6.63;1.67;;;;;;;;;;2089827;28;20037;-66
2023/07/07 05:16:57;;;;;;;3.95;1.42;;;;;;;;;;2092517;28;20036;-66
2023/07/07 05:18:16;;;;;;;4.00;1.50;;;;;;;;;;2089148;28;20037;-66
2023/07/07 05:19:35;;;;;;;4.25;1.60;;;;;;;;;;2092618;28;20036;-66
2023/07/07 05:20:54;;;;;;;1.42;1.30;;;;;;;;;;2095030;28;20598;-66
2023/07/07 05:22:13;;;;;;;5.18;1.70;;;;;;;;;;2095113;28;20032;-67
2023/07/07 05:23:32;;;;;;;5.00;1.75;;;;;;;;;;2094702;28;20036;-66
2023/07/07 05:24:51;;;;;;;2.85;1.58;;;;;;;;;;2094706;28;20612;-66
2023/07/07 05:26:10;;;;;;;5.38;1.73;;;;;;;;;;2096240;28;20028;-67
2023/07/07 05:27:29;;;;;;;2.20;1.63;;;;;;;;;;2096256;28;20380;-66
2023/07/07 05:28:50;;;;;;;3.92;1.50;;;;;;;;;;2096682;28;20115;-66
2023/07/07 05:30:09;;;;;;;5.18;1.95;;;;;;;;;;2096057;28;20625;-66
2023/07/07 05:31:28;;;;;;;8.77;2.50;;;;;;;;;;2096590;28;20071;-66
2023/07/07 05:32:47;;;;;;;4.10;1.58;;;;;;;;;;2087251;28;20029;-66
2023/07/07 05:34:06;;;;;;;5.60;1.85;;;;;;;;;;2089768;28;20428;-65
2023/07/07 05:35:25;;;;;;;4.18;1.73;;;;;;;;;;2095362;28;20442;-66
2023/07/07 05:36:44;;;;;;;6.40;1.83;;;;;;;;;;2084760;28;20516;-65
2023/07/07 05:38:03;;;;;;;6.90;2.13;;;;;;;;;;2093251;28;20032;-66
2023/07/07 05:39:22;;;;;;;3.70;1.50;;;;;;;;;;2096005;28;20045;-66
2023/07/07 05:40:45;;;;;;;5.32;1.95;;;;;;;;;;2098485;28;20032;-66
2023/07/07 05:42:04;;;;;;;6.32;2.08;;;;;;;;;;2089135;28;20041;-66
2023/07/07 05:43:24;;;;;;;5.40;1.75;;;;;;;;;;2092798;28;20861;-66
2023/07/07 05:44:43;;;;;;;3.70;1.58;;;;;;;;;;2097731;28;20455;-66
2023/07/07 05:46:04;;;;;;;4.82;1.63;;;;;;;;;;2097509;28;20033;-66
2023/07/07 05:47:23;;;;;;;5.50;1.80;;;;;;;;;;2095044;28;20051;-66
2023/07/07 05:48:42;;;;;;;3.88;1.60;;;;;;;;;;2085961;28;20017;-67
2023/07/07 05:50:01;;;;;;;4.10;1.40;;;;;;;;;;2091682;28;20025;-66
2023/07/07 05:51:20;;;;;;;2.85;1.73;;;;;;;;;;2098428;28;20123;-66
2023/07/07 05:52:39;;;;;;;4.90;1.75;;;;;;;;;;2097713;28;20135;-66
2023/07/07 05:53:58;;;;;;;3.35;1.50;;;;;;;;;;2097606;28;20037;-66
2023/07/07 05:55:23;;;;;;;7.88;2.00;;;;;;;;;;2097422;28;20493;-67
2023/07/07 05:56:42;;;;;;;4.07;1.58;;;;;;;;;;2095760;28;20040;-66
2023/07/07 05:58:02;;;;;;;2.75;1.58;;;;;;;;;;2090066;28;21447;-66
2023/07/07 05:59:21;;;;;;;5.65;1.70;;;;;;;;;;2094960;28;20037;-66
2023/07/07 06:00:40;;;;;;;7.22;1.45;;;;;;;;;;2097961;28;20431;-66
2023/07/07 06:01:59;;;;;;;5.80;1.63;;;;;;;;;;2094935;28;20028;-66
2023/07/07 06:03:18;;;;;;;7.97;2.10;;;;;;;;;;2096712;28;20040;-66
2023/07/07 06:04:37;;;;;;;3.85;1.33;;;;;;;;;;2096540;28;20032;-66
2023/07/07 06:05:56;;;;;;;4.30;1.98;;;;;;;;;;2095156;28;20017;-66
2023/07/07 06:07:15;;;;;;;5.45;1.48;;;;;;;;;;2094788;28;20107;-66
2023/07/07 06:08:34;;;;;;;5.00;1.73;;;;;;;;;;2095520;28;20060;-69
2023/07/07 06:09:57;;;;;;;5.88;1.83;;;;;;;;;;2094035;28;21973;-67
2023/07/07 06:11:16;;;;;;;5.20;1.83;;;;;;;;;;2093553;28;20028;-66
2023/07/07 06:12:36;;;;;;;2.47;1.58;;;;;;;;;;2091453;28;21471;-66
2023/07/07 06:13:55;;;;;;;4.90;1.30;;;;;;;;;;2096766;28;20159;-66
2023/07/07 06:15:14;;;;;;;4.47;2.58;;;;;;;;;;2098450;28;20111;-66
2023/07/07 06:16:33;;;;;;;5.20;1.65;;;;;;;;;;2097818;28;20024;-66
2023/07/07 06:17:52;;;;;;;9.15;1.73;;;;;;;;;;2096353;28;20060;-67
2023/07/07 06:19:11;;;;;;;4.28;1.75;;;;;;;;;;2098740;28;20031;-66
2023/07/07 06:20:30;;;;;;;3.42;1.80;;;;;;;;;;2088074;28;20028;-66
2023/07/07 06:21:49;;;;;;;10.85;2.15;;;;;;;;;;2093644;28;20020;-66
2023/07/07 06:23:11;;;;;;;5.63;2.28;;;;;;;;;;2098372;28;20111;-67
2023/07/07 06:24:30;;;;;;;6.30;1.92;;;;;;;;;;2096565;28;20028;-66
2023/07/07 06:25:49;;;;;;;6.25;1.60;;;;;;;;;;2097903;28;20044;-66
2023/07/07 06:27:08;;;;;;;5.80;1.80;;;;;;;;;;2097011;28;20029;-65
2023/07/07 06:28:27;;;;;;;6.88;1.92;;;;;;;;;;2100274;28;20064;-66
2023/07/07 06:29:46;;;;;;;3.92;1.98;;;;;;;;;;2089322;28;20025;-65
2023/07/07 06:31:06;;;;;;;3.88;1.63;;;;;;;;;;2094919;28;20040;-66
2023/07/07 06:32:25;;;;;;;3.88;1.90;;;;;;;;;;2098799;28;20044;-66
2023/07/07 06:33:44;;;;;;;1.90;1.40;;;;;;;;;;2099798;28;20024;-65
2023/07/07 06:35:04;;;;;;;4.25;1.92;;;;;;;;;;2098715;28;20067;-66
2023/07/07 06:36:23;;;;;;;5.32;1.73;;;;;;;;;;2087231;28;20549;-66
2023/07/07 06:37:42;;;;;;;3.15;1.75;;;;;;;;;;2094098;28;20044;-66
2023/07/07 06:39:01;;;;;;;5.60;1.95;;;;;;;;;;2099576;28;20477;-66
2023/07/07 06:40:20;;;;;;;2.78;1.60;;;;;;;;;;2090186;28;20041;-65
2023/07/07 06:41:39;;;;;;;4.65;1.65;;;;;;;;;;2094154;28;20028;-66
2023/07/07 06:42:59;;;;;;;4.05;1.80;;;;;;;;;;2097864;28;20389;-66
2023/07/07 06:44:18;;;;;;;5.57;2.10;;;;;;;;;;2098900;28;20040;-65
2023/07/07 06:45:37;;;;;;;4.72;1.77;;;;;;;;;;2098409;28;20505;-66
2023/07/07 06:46:56;;;;;;;4.68;1.55;;;;;;;;;;2096295;28;20032;-67
2023/07/07 06:48:15;;;;;;;3.47;1.70;;;;;;;;;;2098027;28;20025;-65
2023/07/07 06:49:34;;;;;;;5.30;1.70;;;;;;;;;;2089289;28;20028;-65
2023/07/07 06:50:53;;;;;;;4.90;1.77;;;;;;;;;;2097051;28;20107;-65
2023/07/07 06:52:13;;;;;;;2.92;1.75;;;;;;;;;;2098455;28;20428;-66
2023/07/07 06:53:32;;;;;;;3.25;1.75;;;;;;;;;;2088849;28;20068;-67
2023/07/07 06:54:52;;;;;;;3.20;1.92;;;;;;;;;;2094054;28;20033;-65
2023/07/07 06:56:11;;;;;;;5.78;1.80;;;;;;;;;;2086676;28;20032;-67
2023/07/07 06:57:30;;;;;;;8.45;2.10;;;;;;;;;;2094140;28;20111;-66
2023/07/07 06:58:49;;;;;;;3.92;1.65;;;;;;;;;;2089115;28;20055;-67
2023/07/07 07:00:08;;;;;;;4.40;1.35;;;;;;;;;;2094730;28;20032;-67
2023/07/07 07:01:27;;;;;;;6.25;1.60;;;;;;;;;;2088824;28;20037;-67
2023/07/07 07:02:47;;;;;;;4.43;1.80;;;;;;;;;;2089384;28;20096;-66
2023/07/07 07:04:06;;;;;;;5.65;1.48;;;;;;;;;;2094843;28;20052;-66
2023/07/07 07:05:24;;;;;;;5.05;2.25;;;;;;;;;;2097374;28;20405;-65
2023/07/07 07:06:44;;;;;;;7.10;1.80;;;;;;;;;;2095226;28;20028;-66
2023/07/07 07:08:03;;;;;;;3.75;1.63;;;;;;;;;;2098171;28;20032;-67
2023/07/07 07:09:22;;;;;;;6.20;1.95;;;;;;;;;;2097479;28;20180;-65
2023/07/07 07:10:41;;;;;;;3.83;1.70;;;;;;;;;;2098370;28;20039;-67
2023/07/07 07:12:00;;;;;;;4.93;1.92;;;;;;;;;;2099571;28;20477;-66
2023/07/07 07:13:19;;;;;;;4.35;1.83;;;;;;;;;;2098090;28;20024;-66
2023/07/07 07:14:38;;;;;;;3.60;1.90;;;;;;;;;;2096744;28;20024;-67
2023/07/07 07:15:58;;;;;;;4.10;1.75;;;;;;;;;;2097618;28;20096;-67
2023/07/07 07:17:16;;;;;;;4.72;1.48;;;;;;;;;;2097726;28;20054;-66
2023/07/07 07:18:35;;;;;;;5.57;2.10;;;;;;;;;;2098425;28;20028;-66
2023/07/07 07:19:55;;;;;;;6.40;1.52;;;;;;;;;;2097398;28;20017;-67
2023/07/07 07:21:14;;;;;;;5.45;2.05;;;;;;;;;;2099120;28;20032;-67
2023/07/07 07:22:33;;;;;;;5.07;1.50;;;;;;;;;;2096465;28;20029;-66
2023/07/07 07:23:52;;;;;;;6.40;1.67;;;;;;;;;;2096635;28;20037;-67
2023/07/07 07:25:11;;;;;;;7.45;1.60;;;;;;;;;;2097780;28;20508;-65
2023/07/07 07:26:29;;;;;;;2.40;1.70;;;;;;;;;;2096556;28;20065;-67
2023/07/07 07:27:48;;;;;;;3.85;1.70;;;;;;;;;;2096929;28;20024;-67
2023/07/07 07:29:07;;;;;;;4.05;1.70;;;;;;;;;;2098470;28;20028;-67
2023/07/07 07:30:26;;;;;;;4.60;1.60;;;;;;;;;;2095842;28;20389;-66
2023/07/07 07:31:45;;;;;;;3.28;1.88;;;;;;;;;;2096646;28;20037;-65
2023/07/07 07:33:05;;;;;;;2.88;1.42;;;;;;;;;;2097792;28;20024;-65
2023/07/07 07:34:24;;;;;;;3.03;1.70;;;;;;;;;;2095002;28;20029;-66
2023/07/07 07:35:44;;;;;;;7.40;1.70;;;;;;;;;;2098741;28;20060;-65
2023/07/07 07:37:03;;;;;;;6.43;1.65;;;;;;;;;;2098501;28;20028;-67
2023/07/07 07:38:22;;;;;;;3.35;1.60;;;;;;;;;;2096690;28;20028;-66
2023/07/07 07:39:42;;;;;;;5.18;1.90;;;;;;;;;;2095854;28;20041;-66
2023/07/07 07:41:00;;;;;;;5.05;1.83;;;;;;;;;;2097194;28;20059;-66
2023/07/07 07:42:20;;;;;;;2.95;1.73;;;;;;;;;;2095874;28;20060;-66
2023/07/07 07:43:39;;;;;;;4.35;2.17;;;;;;;;;;2096290;28;20032;-66
2023/07/07 07:44:57;;;;;;;3.28;1.60;;;;;;;;;;2095235;28;20042;-66
2023/07/07 07:46:16;;;;;;;5.03;1.60;;;;;;;;;;2094894;28;20465;-66
2023/07/07 07:47:35;;;;;;;2.88;1.42;;;;;;;;;;2097896;28;20480;-66
2023/07/07 07:48:54;;;;;;;6.25;1.80;;;;;;;;;;2098119;28;20481;-66
2023/07/07 07:50:14;;;;;;;3.45;1.67;;;;;;;;;;2095002;28;20521;-66
2023/07/07 07:51:37;;;;;;;5.32;1.90;;;;;;;;;;2096793;28;20111;-66
2023/07/07 07:52:56;;;;;;;6.82;1.73;;;;;;;;;;2088854;28;20206;-67
2023/07/07 07:54:17;;;;;;;3.53;1.50;;;;;;;;;;2094287;28;20025;-66
2023/07/07 07:55:36;;;;;;;1.90;1.70;;;;;;;;;;2096777;28;20032;-66
2023/07/07 07:56:55;;;;;;;4.43;1.50;;;;;;;;;;2097823;28;20040;-66
2023/07/07 07:58:14;;;;;;;2.97;1.50;;;;;;;;;;2095390;28;20040;-67
2023/07/07 07:59:33;;;;;;;8.57;1.67;;;;;;;;;;2097059;28;20036;-66